createdAt,value
2022-11-03T00:00:08.773Z,17.11
2022-11-03T00:03:01.508Z,17.07
2022-11-03T00:05:51.558Z,17.06
2022-11-03T00:08:23.670Z,17.00
2022-11-03T00:10:55.770Z,16.95
2022-11-03T00:13:27.883Z,16.92
2022-11-03T00:16:01.763Z,16.90
2022-11-03T00:18:34.022Z,16.88
2022-11-03T00:21:07.945Z,16.88
2022-11-03T00:23:42.124Z,16.87
2022-11-03T00:26:15.786Z,16.85
2022-11-03T00:28:50.227Z,16.82
2022-11-03T00:31:25.994Z,16.78
2022-11-03T00:33:59.243Z,16.78
2022-11-03T00:36:32.848Z,16.77
2022-11-03T00:39:05.873Z,16.77
2022-11-03T00:45:02.748Z,16.75
2022-11-03T00:47:34.921Z,16.76
2022-11-03T00:50:08.222Z,16.74
2022-11-03T00:52:40.679Z,16.72
2022-11-03T00:55:12.973Z,16.71
2022-11-03T00:57:45.408Z,16.72
2022-11-03T01:00:34.659Z,16.74
2022-11-03T01:03:08.125Z,16.75
2022-11-03T01:06:05.956Z,16.74
2022-11-03T01:08:38.994Z,16.70
2022-11-03T01:11:43.164Z,16.72
2022-11-03T01:14:17.321Z,16.71
2022-11-03T01:16:50.599Z,16.67
2022-11-03T01:19:24.126Z,16.62
2022-11-03T01:21:57.269Z,16.61
2022-11-03T01:24:31.992Z,16.58
2022-11-03T01:27:04.875Z,16.54
2022-11-03T01:33:56.765Z,16.44
2022-11-03T01:36:29.860Z,16.43
2022-11-03T01:39:02.370Z,16.41
2022-11-03T01:41:32.861Z,16.39
2022-11-03T01:44:29.611Z,16.37
2022-11-03T01:47:08.480Z,16.37
2022-11-03T01:49:45.297Z,16.37
2022-11-03T01:52:19.945Z,16.34
2022-11-03T01:54:57.586Z,16.30
2022-11-03T01:57:33.258Z,16.27
2022-11-03T02:00:07.274Z,16.24
2022-11-03T02:02:41.044Z,16.17
2022-11-03T02:10:54.518Z,16.08
2022-11-03T02:13:28.723Z,16.05
2022-11-03T02:16:02.278Z,16.06
2022-11-03T02:18:37.846Z,16.06
2022-11-03T02:21:16.652Z,16.04
2022-11-03T02:23:52.555Z,15.98
2022-11-03T02:26:24.813Z,15.93
2022-11-03T02:28:57.311Z,15.89
2022-11-03T02:31:33.527Z,15.86
2022-11-03T02:34:09.599Z,15.85
2022-11-03T02:36:46.534Z,15.84
2022-11-03T02:39:21.071Z,15.85
2022-11-03T02:41:54.267Z,15.85
2022-11-03T02:44:27.151Z,15.87
2022-11-03T02:47:01.895Z,15.86
2022-11-03T02:49:34.368Z,15.85
2022-11-03T02:52:05.926Z,15.84
2022-11-03T02:54:41.462Z,15.82
2022-11-03T02:57:16.940Z,15.82
2022-11-03T02:59:52.035Z,15.81
2022-11-03T03:02:27.737Z,15.82
2022-11-03T03:05:01.581Z,15.84
2022-11-03T03:07:35.785Z,15.85
2022-11-03T03:10:10.254Z,15.84
2022-11-03T03:12:44.706Z,15.84
2022-11-03T03:15:17.098Z,15.83
2022-11-03T03:17:56.263Z,15.81
2022-11-03T03:20:33.043Z,15.79
2022-11-03T03:23:11.714Z,15.77
2022-11-03T03:25:47.083Z,15.80
2022-11-03T03:28:22.799Z,15.82
2022-11-03T03:30:56.236Z,15.81
2022-11-03T03:33:29.595Z,15.81
2022-11-03T03:36:02.754Z,15.79
2022-11-03T03:38:37.076Z,15.76
2022-11-03T03:41:11.409Z,15.72
2022-11-03T03:43:44.885Z,15.70
2022-11-03T03:46:17.579Z,15.70
2022-11-03T03:48:49.866Z,15.70
2022-11-03T03:51:24.296Z,15.66
2022-11-03T03:53:56.698Z,15.61
2022-11-03T03:56:31.592Z,15.56
2022-11-03T03:59:04.631Z,15.55
2022-11-03T04:01:36.928Z,15.55
2022-11-03T04:04:09.923Z,15.56
2022-11-03T04:06:42.005Z,15.58
2022-11-03T04:09:14.180Z,15.57
2022-11-03T04:12:03.842Z,15.54
2022-11-03T04:14:53.446Z,15.53
2022-11-03T04:17:43.051Z,15.54
2022-11-03T04:20:33.975Z,15.53
2022-11-03T04:23:06.073Z,15.54
2022-11-03T04:25:38.791Z,15.57
2022-11-03T04:28:15.889Z,15.61
2022-11-03T04:30:48.197Z,15.64
2022-11-03T04:33:21.957Z,15.66
2022-11-03T04:35:55.926Z,15.67
2022-11-03T04:38:29.348Z,15.66
2022-11-03T04:41:03.593Z,15.64
2022-11-03T04:43:36.878Z,15.65
2022-11-03T04:46:12.638Z,15.65
2022-11-03T04:48:44.843Z,15.66
2022-11-03T04:51:18.928Z,15.68
2022-11-03T04:53:54.269Z,15.68
2022-11-03T04:56:27.764Z,15.67
2022-11-03T04:59:00.889Z,15.67
2022-11-03T05:01:33.329Z,15.70
2022-11-03T05:04:12.496Z,15.73
2022-11-03T05:06:47.625Z,15.77
2022-11-03T05:09:24.811Z,15.81
2022-11-03T05:11:57.028Z,15.85
2022-11-03T05:14:31.138Z,15.88
2022-11-03T05:17:07.261Z,15.87
2022-11-03T05:19:40.396Z,15.87
2022-11-03T05:22:18.087Z,15.89
2022-11-03T05:24:50.405Z,15.90
2022-11-03T05:27:24.065Z,15.93
2022-11-03T05:30:00.784Z,15.95
2022-11-03T05:32:35.867Z,15.97
2022-11-03T05:35:17.576Z,15.98
2022-11-03T05:37:49.750Z,15.99
2022-11-03T05:40:26.037Z,16.00
2022-11-03T05:43:00.291Z,16.01
2022-11-03T05:45:39.266Z,16.03
2022-11-03T05:48:18.499Z,16.05
2022-11-03T05:50:50.689Z,16.07
2022-11-03T05:53:31.342Z,16.10
2022-11-03T05:56:06.029Z,16.11
2022-11-03T05:58:40.308Z,16.11
2022-11-03T06:01:17.826Z,16.12
2022-11-03T06:03:50.477Z,16.13
2022-11-03T06:06:21.937Z,16.18
2022-11-03T06:08:54.549Z,16.21
2022-11-03T06:11:32.522Z,16.27
2022-11-03T06:14:07.468Z,16.29
2022-11-03T06:16:41.941Z,16.31
2022-11-03T06:19:29.710Z,16.38
2022-11-03T06:22:03.680Z,16.45
2022-11-03T06:24:36.896Z,16.53
2022-11-03T06:27:10.977Z,16.57
2022-11-03T06:29:43.407Z,16.60
2022-11-03T06:32:16.003Z,16.62
2022-11-03T06:34:46.922Z,16.61
2022-11-03T06:37:27.882Z,16.56
2022-11-03T06:40:01.933Z,16.59
2022-11-03T06:42:35.023Z,16.64
2022-11-03T06:45:16.199Z,16.68
2022-11-03T06:47:48.633Z,16.73
2022-11-03T06:50:27.265Z,16.76
2022-11-03T06:53:00.039Z,16.78
2022-11-03T06:55:33.471Z,16.81
2022-11-03T06:58:13.751Z,16.86
2022-11-03T07:00:51.004Z,16.90
2022-11-03T07:03:26.898Z,16.85
2022-11-03T07:06:03.470Z,16.80
2022-11-03T07:08:39.161Z,16.74
2022-11-03T07:11:16.723Z,16.69
2022-11-03T07:13:50.119Z,16.68
2022-11-03T07:16:29.008Z,16.68
2022-11-03T07:19:04.098Z,16.68
2022-11-03T07:21:40.860Z,16.68
2022-11-03T07:24:20.054Z,16.70
2022-11-03T07:26:58.261Z,16.72
2022-11-03T07:29:31.994Z,16.77
2022-11-03T07:32:04.241Z,16.82
2022-11-03T07:34:36.352Z,16.88
2022-11-03T07:37:09.460Z,16.90
2022-11-03T07:39:41.654Z,16.96
2022-11-03T07:42:19.052Z,17.01
2022-11-03T07:44:51.759Z,17.06
2022-11-03T07:47:26.898Z,17.05
2022-11-03T07:49:59.465Z,17.04
2022-11-03T07:52:29.931Z,17.06
2022-11-03T07:55:02.477Z,17.03
2022-11-03T07:57:32.981Z,17.06
2022-11-03T08:00:10.632Z,17.09
2022-11-03T08:02:48.158Z,17.13
2022-11-03T08:05:21.090Z,17.20
2022-11-03T08:07:53.450Z,17.24
2022-11-03T08:10:25.707Z,17.27
2022-11-03T08:12:58.944Z,17.28
2022-11-03T08:15:31.151Z,17.35
2022-11-03T08:18:03.420Z,17.39
2022-11-03T08:20:35.807Z,17.38
2022-11-03T08:23:26.126Z,17.40
2022-11-03T08:26:00.201Z,17.43
2022-11-03T08:28:32.669Z,17.45
2022-11-03T08:31:11.128Z,17.46
2022-11-03T08:33:46.634Z,17.46
2022-11-03T08:36:20.087Z,17.48
2022-11-03T08:38:52.587Z,17.52
2022-11-03T08:41:24.800Z,17.58
2022-11-03T08:43:56.941Z,17.64
2022-11-03T08:46:29.094Z,17.67
2022-11-03T08:49:01.469Z,17.71
2022-11-03T08:51:34.056Z,17.73
2022-11-03T08:54:06.489Z,17.76
2022-11-03T08:56:38.826Z,17.84
2022-11-03T08:59:11.069Z,17.86
2022-11-03T09:01:45.014Z,17.86
2022-11-03T09:04:19.287Z,17.87
2022-11-03T09:06:52.530Z,17.93
2022-11-03T09:12:19.440Z,18.00
2022-11-03T09:14:52.812Z,18.08
2022-11-03T09:17:26.445Z,18.16
2022-11-03T09:19:59.328Z,18.16
2022-11-03T09:22:32.101Z,18.16
2022-11-03T09:25:05.852Z,18.21
2022-11-03T09:27:38.323Z,18.35
2022-11-03T09:30:13.625Z,18.51
2022-11-03T09:32:47.977Z,18.61
2022-11-03T09:35:21.842Z,18.71
2022-11-03T09:37:55.468Z,18.93
2022-11-03T09:40:28.830Z,19.14
2022-11-03T09:43:01.236Z,19.32
2022-11-03T09:45:36.848Z,19.42
2022-11-03T09:48:13.163Z,19.50
2022-11-03T09:50:45.838Z,19.62
2022-11-03T09:53:19.463Z,19.70
2022-11-03T09:55:52.864Z,19.80
2022-11-03T09:58:26.245Z,19.83
2022-11-03T10:00:59.756Z,19.84
2022-11-03T10:09:56.556Z,19.94
2022-11-03T10:12:29.354Z,19.97
2022-11-03T10:15:02.458Z,20.08
2022-11-03T10:17:34.772Z,20.16
2022-11-03T10:20:11.347Z,20.22
2022-11-03T10:22:44.102Z,20.39
2022-11-03T10:25:38.831Z,20.61
2022-11-03T10:28:20.156Z,20.77
2022-11-03T10:31:11.951Z,20.87
2022-11-03T10:33:43.747Z,20.95
2022-11-03T10:36:27.928Z,20.99
2022-11-03T10:39:01.880Z,21.02
2022-11-03T10:41:34.747Z,21.01
2022-11-03T10:44:22.964Z,20.99
2022-11-03T10:47:02.894Z,21.04
2022-11-03T10:49:39.213Z,21.00
2022-11-03T10:52:19.919Z,21.05
2022-11-03T10:54:53.738Z,21.09
2022-11-03T10:57:26.407Z,21.07
2022-11-03T10:59:59.017Z,21.03
2022-11-03T11:02:33.206Z,21.00
2022-11-03T11:05:11.275Z,21.07
2022-11-03T11:07:44.915Z,21.11
2022-11-03T11:10:19.705Z,21.06
2022-11-03T11:13:27.061Z,20.95
2022-11-03T11:16:00.769Z,20.97
2022-11-03T11:19:10.143Z,20.98
2022-11-03T11:22:05.534Z,21.00
2022-11-03T11:25:04.695Z,21.04
2022-11-03T11:28:17.979Z,21.15
2022-11-03T11:31:20.077Z,21.32
2022-11-03T11:33:52.634Z,21.54
2022-11-03T11:36:26.224Z,21.76
2022-11-03T11:39:01.763Z,21.86
2022-11-03T11:42:10.349Z,21.91
2022-11-03T11:44:58.107Z,21.96
2022-11-03T11:47:35.874Z,22.12
2022-11-03T11:50:33.475Z,22.25
2022-11-03T11:53:26.265Z,22.39
2022-11-03T11:56:03.643Z,22.57
2022-11-03T11:58:42.646Z,22.63
2022-11-03T12:01:32.735Z,22.59
2022-11-03T12:04:09.618Z,22.58
2022-11-03T12:09:21.991Z,22.77
2022-11-03T12:11:56.505Z,22.81
2022-11-03T12:14:36.070Z,22.90
2022-11-03T12:17:35.649Z,22.99
2022-11-03T12:20:45.078Z,23.00
2022-11-03T12:23:37.153Z,23.13
2022-11-03T12:26:13.876Z,23.25
2022-11-03T12:28:46.391Z,23.31
2022-11-03T12:31:18.671Z,23.38
2022-11-03T12:33:49.270Z,23.37
2022-11-03T12:36:21.423Z,23.33
2022-11-03T12:38:53.278Z,23.44
2022-11-03T12:41:25.632Z,23.45
2022-11-03T12:43:56.445Z,23.44
2022-11-03T12:46:28.835Z,23.34
2022-11-03T12:48:59.376Z,23.19
2022-11-03T12:51:31.597Z,23.24
2022-11-03T12:54:02.098Z,23.25
2022-11-03T12:56:34.255Z,23.22
2022-11-03T12:59:06.852Z,23.22
2022-11-03T13:01:37.717Z,23.14
2022-11-03T13:04:10.373Z,23.11
2022-11-03T13:06:42.508Z,23.04
2022-11-03T13:09:13.149Z,22.91
2022-11-03T13:12:02.743Z,22.83
2022-11-03T13:14:34.954Z,22.99
2022-11-03T13:17:07.124Z,23.06
2022-11-03T13:19:39.226Z,23.09
2022-11-03T13:22:11.348Z,23.03
2022-11-03T13:24:43.536Z,22.93
2022-11-03T13:27:15.793Z,22.72
2022-11-03T13:29:48.111Z,22.65
2022-11-03T13:32:18.697Z,22.65
2022-11-03T13:34:53.487Z,22.51
2022-11-03T13:37:25.684Z,22.36
2022-11-03T13:39:57.826Z,22.18
2022-11-03T13:42:28.362Z,22.08
2022-11-03T13:45:00.860Z,22.03
2022-11-03T13:47:49.642Z,21.95
2022-11-03T13:50:25.521Z,21.74
2022-11-03T13:55:50.441Z,21.42
2022-11-03T14:01:15.014Z,21.32
2022-11-03T14:06:38.395Z,21.17
2022-11-03T14:09:13.364Z,21.03
2022-11-03T14:12:03.005Z,20.86
2022-11-03T14:14:35.178Z,20.73
2022-11-03T14:17:07.460Z,20.66
2022-11-03T14:19:43.764Z,20.64
2022-11-03T14:22:21.091Z,20.56
2022-11-03T14:24:54.066Z,20.42
2022-11-03T14:27:26.530Z,20.30
2022-11-03T14:29:59.896Z,20.19
2022-11-03T14:32:32.008Z,20.09
2022-11-03T14:35:04.455Z,19.97
2022-11-03T14:37:36.742Z,19.90
2022-11-03T14:40:31.364Z,19.82
2022-11-03T14:43:04.039Z,19.74
2022-11-03T14:45:39.764Z,19.68
2022-11-03T14:48:14.679Z,19.64
2022-11-03T14:50:48.292Z,19.65
2022-11-03T14:53:20.475Z,19.58
2022-11-03T14:55:52.746Z,19.50
2022-11-03T14:58:25.026Z,19.46
2022-11-03T15:00:57.345Z,19.41
2022-11-03T15:03:27.857Z,19.36
2022-11-03T15:06:00.086Z,19.28
2022-11-03T15:08:32.787Z,19.21
2022-11-03T15:11:08.128Z,19.16
2022-11-03T15:13:45.828Z,19.13
2022-11-03T15:16:20.721Z,19.13
2022-11-03T15:18:53.121Z,19.14
2022-11-03T15:21:25.288Z,19.15
2022-11-03T15:26:49.558Z,19.17
2022-11-03T15:29:24.175Z,19.15
2022-11-03T15:31:56.536Z,19.13
2022-11-03T15:34:28.796Z,19.15
2022-11-03T15:37:01.132Z,19.15
2022-11-03T15:39:36.363Z,19.09
2022-11-03T15:42:08.871Z,19.06
2022-11-03T15:44:41.215Z,19.00
2022-11-03T15:47:13.576Z,18.93
2022-11-03T15:49:44.235Z,18.87
2022-11-03T15:52:16.673Z,18.80
2022-11-03T15:54:48.743Z,18.77
2022-11-03T15:57:21.012Z,18.72
2022-11-03T15:59:55.347Z,18.70
2022-11-03T16:02:45.914Z,18.67
2022-11-03T16:05:23.800Z,18.65
2022-11-03T16:08:00.520Z,18.61
2022-11-03T16:10:32.871Z,18.60
2022-11-03T16:13:05.221Z,18.58
2022-11-03T16:15:37.478Z,18.58
2022-11-03T16:18:10.061Z,18.57
2022-11-03T16:20:45.110Z,18.52
2022-11-03T16:23:17.430Z,18.46
2022-11-03T16:25:49.599Z,18.42
2022-11-03T16:28:21.752Z,18.38
2022-11-03T16:30:54.709Z,18.32
2022-11-03T16:33:27.066Z,18.22
2022-11-03T16:35:59.744Z,18.23
2022-11-03T16:38:32.077Z,18.25
2022-11-03T16:41:05.361Z,18.26
2022-11-03T16:43:37.597Z,18.27
2022-11-03T16:46:10.504Z,18.28
2022-11-03T16:48:42.676Z,18.26
2022-11-03T16:51:14.944Z,18.24
2022-11-03T16:53:47.237Z,18.22
2022-11-03T16:56:19.517Z,18.21
2022-11-03T16:58:51.708Z,18.18
2022-11-03T17:01:23.979Z,18.15
2022-11-03T17:03:57.077Z,18.11
2022-11-03T17:10:42.051Z,17.98
2022-11-03T17:13:17.549Z,17.95
2022-11-03T17:15:50.330Z,17.87
2022-11-03T17:18:22.647Z,17.85
2022-11-03T17:20:55.016Z,17.81
2022-11-03T17:23:27.498Z,17.77
2022-11-03T17:29:23.224Z,17.75
2022-11-03T17:31:51.986Z,17.71
2022-11-03T17:34:23.730Z,17.67
2022-11-03T17:36:53.379Z,17.63
2022-11-03T17:39:28.962Z,17.55
2022-11-03T17:42:04.082Z,17.48
2022-11-03T17:44:32.947Z,17.40
2022-11-03T17:47:01.826Z,17.36
2022-11-03T17:49:30.636Z,17.32
2022-11-03T17:51:59.442Z,17.30
2022-11-03T17:54:30.805Z,17.27
2022-11-03T17:57:00.850Z,17.25
2022-11-03T17:59:29.796Z,17.21
2022-11-03T18:01:58.948Z,17.17
2022-11-03T18:04:27.901Z,17.12
2022-11-03T18:06:57.166Z,17.08
2022-11-03T18:09:25.964Z,17.05
2022-11-03T18:12:13.065Z,17.00
2022-11-03T18:14:41.894Z,16.94
2022-11-03T18:17:10.899Z,16.91
2022-11-03T18:19:40.043Z,16.88
2022-11-03T18:22:10.303Z,16.84
2022-11-03T18:24:39.148Z,16.81
2022-11-03T18:27:11.685Z,16.75
2022-11-03T18:29:39.457Z,16.68
2022-11-03T18:32:10.578Z,16.58
2022-11-03T18:34:41.321Z,16.55
2022-11-03T18:37:10.369Z,16.54
2022-11-03T18:39:39.631Z,16.52
2022-11-03T18:42:13.692Z,16.49
2022-11-03T18:44:43.884Z,16.47
2022-11-03T18:47:12.639Z,16.43
2022-11-03T18:49:41.606Z,16.40
2022-11-03T18:52:14.072Z,16.39
2022-11-03T18:54:44.016Z,16.37
2022-11-03T18:57:13.393Z,16.31
2022-11-03T18:59:44.578Z,16.31
2022-11-03T19:02:17.646Z,16.29
2022-11-03T19:04:46.994Z,16.29
2022-11-03T19:07:19.341Z,16.26
2022-11-03T19:09:48.193Z,16.24
2022-11-03T19:12:17.162Z,16.20
2022-11-03T19:14:47.417Z,16.17
2022-11-03T19:17:25.423Z,16.15
2022-11-03T19:19:54.604Z,16.12
2022-11-03T19:22:24.323Z,16.10
2022-11-03T19:24:53.219Z,16.08
2022-11-03T19:27:25.728Z,16.05
2022-11-03T19:29:55.562Z,16.00
2022-11-03T19:32:26.258Z,15.98
2022-11-03T19:34:57.037Z,15.95
2022-11-03T19:37:28.725Z,15.93
2022-11-03T19:40:00.713Z,15.91
2022-11-03T19:42:30.689Z,15.87
2022-11-03T19:45:06.662Z,15.83
2022-11-03T19:47:38.361Z,15.79
2022-11-03T19:50:17.759Z,15.77
2022-11-03T19:52:46.680Z,15.75
2022-11-03T19:55:16.099Z,15.75
2022-11-03T19:57:45.135Z,15.74
2022-11-03T20:00:18.158Z,15.73
2022-11-03T20:02:47.369Z,15.70
2022-11-03T20:05:16.461Z,15.67
2022-11-03T20:07:45.397Z,15.63
2022-11-03T20:10:18.987Z,15.62
2022-11-03T20:12:48.197Z,15.59
2022-11-03T20:15:19.079Z,15.58
2022-11-03T20:17:49.202Z,15.58
2022-11-03T20:20:19.765Z,15.56
2022-11-03T20:22:50.376Z,15.50
2022-11-03T20:25:23.405Z,15.45
2022-11-03T20:27:52.766Z,15.41
2022-11-03T20:30:22.778Z,15.39
2022-11-03T20:32:52.286Z,15.36
2022-11-03T20:35:24.207Z,15.35
2022-11-03T20:37:59.098Z,15.32
2022-11-03T20:40:30.358Z,15.28
2022-11-03T20:43:01.062Z,15.27
2022-11-03T20:45:30.079Z,15.26
2022-11-03T20:47:59.121Z,15.24
2022-11-03T20:50:31.473Z,15.22
2022-11-03T20:53:00.434Z,15.21
2022-11-03T20:55:29.989Z,15.18
2022-11-03T20:57:59.396Z,15.15
2022-11-03T21:00:28.598Z,15.12
2022-11-03T21:02:57.594Z,15.08
2022-11-03T21:05:27.979Z,15.05
2022-11-03T21:07:56.974Z,15.01
2022-11-03T21:10:25.968Z,14.99
2022-11-03T21:12:54.962Z,14.97
2022-11-03T21:15:57.723Z,14.96
2022-11-03T21:18:49.868Z,14.93
2022-11-03T21:21:21.385Z,14.90
2022-11-03T21:23:50.571Z,14.89
2022-11-03T21:26:19.511Z,14.87
2022-11-03T21:28:48.427Z,14.85
2022-11-03T21:31:23.193Z,14.81
2022-11-03T21:33:52.155Z,14.78
2022-11-03T21:36:21.194Z,14.76
2022-11-03T21:38:50.102Z,14.76
2022-11-03T21:41:37.390Z,14.75
2022-11-03T21:44:16.570Z,14.66
2022-11-03T21:46:46.644Z,14.61
2022-11-03T21:49:33.750Z,14.59
2022-11-03T21:52:02.694Z,14.57
2022-11-03T21:54:31.700Z,14.53
2022-11-03T21:57:00.624Z,14.51
2022-11-03T21:59:29.611Z,14.52
2022-11-03T22:01:58.773Z,14.51
2022-11-03T22:04:28.464Z,14.49
2022-11-03T22:06:58.927Z,14.48
2022-11-03T22:09:28.328Z,14.47
2022-11-03T22:11:57.227Z,14.46
2022-11-03T22:14:28.492Z,14.44
2022-11-03T22:16:57.779Z,14.42
2022-11-03T22:19:45.034Z,14.37
2022-11-03T22:22:33.483Z,14.35
2022-11-03T22:25:20.963Z,14.34
2022-11-03T22:27:49.883Z,14.34
2022-11-03T22:30:37.353Z,14.32
2022-11-03T22:33:06.301Z,14.29
2022-11-03T22:35:53.557Z,14.29
2022-11-03T22:38:42.456Z,14.27
2022-11-03T22:41:29.911Z,14.27
2022-11-03T22:44:22.717Z,14.24
2022-11-03T22:46:51.665Z,14.20
2022-11-03T22:49:20.586Z,14.18
2022-11-03T22:51:49.622Z,14.17
2022-11-03T22:54:18.724Z,14.15
2022-11-03T22:56:47.665Z,14.12
2022-11-03T22:59:16.673Z,14.10
2022-11-03T23:01:45.692Z,14.08
2022-11-03T23:04:14.805Z,14.04
2022-11-03T23:06:43.723Z,14.03
2022-11-03T23:09:14.709Z,14.01
2022-11-03T23:11:43.685Z,14.00
2022-11-03T23:14:12.631Z,13.98
2022-11-03T23:16:43.526Z,13.97
2022-11-03T23:19:32.835Z,13.96
2022-11-03T23:22:01.972Z,13.94
2022-11-03T23:24:49.108Z,13.93
2022-11-03T23:27:18.054Z,13.91
2022-11-03T23:29:46.977Z,13.89
2022-11-03T23:32:15.968Z,13.80
2022-11-03T23:34:44.876Z,13.78
2022-11-03T23:37:13.951Z,13.67
2022-11-03T23:39:42.854Z,13.58
2022-11-03T23:42:11.809Z,13.51
2022-11-03T23:44:59.300Z,13.39
2022-11-03T23:47:46.575Z,13.26
2022-11-03T23:50:15.861Z,13.16
2022-11-03T23:52:44.746Z,13.11
2022-11-03T23:55:13.653Z,13.08
2022-11-03T23:58:00.799Z,13.08
